sensor_id;sensor_type;location;lat;lon;timestamp;temperature;humidity
64833;HTU21D;51290;45.060;38.948;2024-02-16T00:01:35;4.49;72.51
64833;HTU21D;51290;45.060;38.948;2024-02-16T00:04:01;4.47;72.46
64833;HTU21D;51290;45.060;38.948;2024-02-16T00:06:27;4.48;72.58
64833;HTU21D;51290;45.060;38.948;2024-02-16T00:08:53;4.48;72.58
64833;HTU21D;51290;45.060;38.948;2024-02-16T00:11:19;4.51;72.54
64833;HTU21D;51290;45.060;38.948;2024-02-16T00:13:45;4.51;72.18
64833;HTU21D;51290;45.060;38.948;2024-02-16T00:16:11;4.50;72.14
64833;HTU21D;51290;45.060;38.948;2024-02-16T00:18:37;4.50;72.19
64833;HTU21D;51290;45.060;38.948;2024-02-16T00:21:03;4.51;72.17
64833;HTU21D;51290;45.060;38.948;2024-02-16T00:23:31;4.49;72.06
64833;HTU21D;51290;45.060;38.948;2024-02-16T00:26:01;4.49;72.10
64833;HTU21D;51290;45.060;38.948;2024-02-16T00:28:27;4.49;72.06
64833;HTU21D;51290;45.060;38.948;2024-02-16T00:30:53;4.49;72.03
64833;HTU21D;51290;45.060;38.948;2024-02-16T00:33:19;4.47;72.02
64833;HTU21D;51290;45.060;38.948;2024-02-16T00:35:45;4.46;71.84
64833;HTU21D;51290;45.060;38.948;2024-02-16T00:38:14;4.44;71.71
64833;HTU21D;51290;45.060;38.948;2024-02-16T00:40:40;4.42;71.59
64833;HTU21D;51290;45.060;38.948;2024-02-16T00:43:10;4.38;71.61
64833;HTU21D;51290;45.060;38.948;2024-02-16T00:45:36;4.38;71.74
64833;HTU21D;51290;45.060;38.948;2024-02-16T00:48:02;4.37;71.84
64833;HTU21D;51290;45.060;38.948;2024-02-16T00:50:29;4.37;71.80
64833;HTU21D;51290;45.060;38.948;2024-02-16T00:52:55;4.38;71.84
64833;HTU21D;51290;45.060;38.948;2024-02-16T00:55:21;4.41;71.80
64833;HTU21D;51290;45.060;38.948;2024-02-16T00:57:47;4.39;71.70
64833;HTU21D;51290;45.060;38.948;2024-02-16T01:00:13;4.42;71.71
64833;HTU21D;51290;45.060;38.948;2024-02-16T01:02:41;4.41;71.62
64833;HTU21D;51290;45.060;38.948;2024-02-16T01:05:07;4.43;71.57
64833;HTU21D;51290;45.060;38.948;2024-02-16T01:07:36;4.43;71.49
64833;HTU21D;51290;45.060;38.948;2024-02-16T01:10:02;4.43;71.43
64833;HTU21D;51290;45.060;38.948;2024-02-16T01:12:31;4.43;71.42
64833;HTU21D;51290;45.060;38.948;2024-02-16T01:14:57;4.45;71.32
64833;HTU21D;51290;45.060;38.948;2024-02-16T01:17:23;4.44;71.17
64833;HTU21D;51290;45.060;38.948;2024-02-16T01:19:49;4.43;71.13
64833;HTU21D;51290;45.060;38.948;2024-02-16T01:22:15;4.42;71.12
64833;HTU21D;51290;45.060;38.948;2024-02-16T01:24:41;4.42;71.13
64833;HTU21D;51290;45.060;38.948;2024-02-16T01:27:07;4.41;71.09
64833;HTU21D;51290;45.060;38.948;2024-02-16T01:29:33;4.41;71.07
64833;HTU21D;51290;45.060;38.948;2024-02-16T01:31:59;4.41;71.10
64833;HTU21D;51290;45.060;38.948;2024-02-16T01:34:25;4.43;71.08
64833;HTU21D;51290;45.060;38.948;2024-02-16T01:36:51;4.43;70.96
64833;HTU21D;51290;45.060;38.948;2024-02-16T01:39:16;4.43;70.84
64833;HTU21D;51290;45.060;38.948;2024-02-16T01:41:42;4.41;70.54
64833;HTU21D;51290;45.060;38.948;2024-02-16T01:44:08;4.41;70.58
64833;HTU21D;51290;45.060;38.948;2024-02-16T01:46:35;4.37;70.55
64833;HTU21D;51290;45.060;38.948;2024-02-16T01:49:01;4.37;70.57
64833;HTU21D;51290;45.060;38.948;2024-02-16T01:51:28;4.35;70.58
64833;HTU21D;51290;45.060;38.948;2024-02-16T01:53:55;4.35;70.68
64833;HTU21D;51290;45.060;38.948;2024-02-16T01:56:21;4.34;70.63
64833;HTU21D;51290;45.060;38.948;2024-02-16T01:58:48;4.35;70.69
64833;HTU21D;51290;45.060;38.948;2024-02-16T02:01:16;4.34;70.59
64833;HTU21D;51290;45.060;38.948;2024-02-16T02:03:42;4.34;70.30
64833;HTU21D;51290;45.060;38.948;2024-02-16T02:06:08;4.34;70.19
64833;HTU21D;51290;45.060;38.948;2024-02-16T02:08:34;4.35;70.17
64833;HTU21D;51290;45.060;38.948;2024-02-16T02:11:00;4.37;70.11
64833;HTU21D;51290;45.060;38.948;2024-02-16T02:13:28;4.37;70.03
64833;HTU21D;51290;45.060;38.948;2024-02-16T02:15:55;4.37;69.87
64833;HTU21D;51290;45.060;38.948;2024-02-16T02:18:21;4.39;69.68
64833;HTU21D;51290;45.060;38.948;2024-02-16T02:20:47;4.38;69.49
64833;HTU21D;51290;45.060;38.948;2024-02-16T02:23:13;4.39;69.57
64833;HTU21D;51290;45.060;38.948;2024-02-16T02:25:39;4.41;69.63
64833;HTU21D;51290;45.060;38.948;2024-02-16T02:28:06;4.42;69.50
64833;HTU21D;51290;45.060;38.948;2024-02-16T02:30:32;4.42;69.33
64833;HTU21D;51290;45.060;38.948;2024-02-16T02:32:57;4.42;69.36
64833;HTU21D;51290;45.060;38.948;2024-02-16T02:35:23;4.42;69.16
64833;HTU21D;51290;45.060;38.948;2024-02-16T02:37:49;4.41;69.06
64833;HTU21D;51290;45.060;38.948;2024-02-16T02:40:15;4.39;68.92
64833;HTU21D;51290;45.060;38.948;2024-02-16T02:42:42;4.38;68.84
64833;HTU21D;51290;45.060;38.948;2024-02-16T02:45:09;4.37;69.00
64833;HTU21D;51290;45.060;38.948;2024-02-16T02:47:35;4.37;68.97
64833;HTU21D;51290;45.060;38.948;2024-02-16T02:50:01;4.38;68.62
64833;HTU21D;51290;45.060;38.948;2024-02-16T02:52:27;4.37;68.45
64833;HTU21D;51290;45.060;38.948;2024-02-16T02:54:53;4.35;68.58
64833;HTU21D;51290;45.060;38.948;2024-02-16T02:57:19;4.35;68.70
64833;HTU21D;51290;45.060;38.948;2024-02-16T02:59:45;4.36;68.66
64833;HTU21D;51290;45.060;38.948;2024-02-16T03:02:11;4.35;68.69
64833;HTU21D;51290;45.060;38.948;2024-02-16T03:04:37;4.36;68.72
64833;HTU21D;51290;45.060;38.948;2024-02-16T03:07:03;4.36;68.82
64833;HTU21D;51290;45.060;38.948;2024-02-16T03:09:28;4.38;68.76
64833;HTU21D;51290;45.060;38.948;2024-02-16T03:11:54;4.38;68.80
64833;HTU21D;51290;45.060;38.948;2024-02-16T03:14:20;4.38;68.58
64833;HTU21D;51290;45.060;38.948;2024-02-16T03:16:46;4.39;68.52
64833;HTU21D;51290;45.060;38.948;2024-02-16T03:19:12;4.38;68.31
64833;HTU21D;51290;45.060;38.948;2024-02-16T03:21:38;4.35;68.21
64833;HTU21D;51290;45.060;38.948;2024-02-16T03:24:05;4.34;68.34
64833;HTU21D;51290;45.060;38.948;2024-02-16T03:26:31;4.34;68.39
64833;HTU21D;51290;45.060;38.948;2024-02-16T03:28:57;4.33;68.33
64833;HTU21D;51290;45.060;38.948;2024-02-16T03:31:24;4.31;68.04
64833;HTU21D;51290;45.060;38.948;2024-02-16T03:33:51;4.27;67.91
64833;HTU21D;51290;45.060;38.948;2024-02-16T03:36:18;4.26;67.94
64833;HTU21D;51290;45.060;38.948;2024-02-16T03:38:45;4.22;68.02
64833;HTU21D;51290;45.060;38.948;2024-02-16T03:41:19;4.18;68.04
64833;HTU21D;51290;45.060;38.948;2024-02-16T03:43:45;4.18;68.12
64833;HTU21D;51290;45.060;38.948;2024-02-16T03:46:11;4.15;67.97
64833;HTU21D;51290;45.060;38.948;2024-02-16T03:48:38;4.14;67.83
64833;HTU21D;51290;45.060;38.948;2024-02-16T03:51:05;4.10;67.86
64833;HTU21D;51290;45.060;38.948;2024-02-16T03:53:31;4.08;67.93
64833;HTU21D;51290;45.060;38.948;2024-02-16T03:55:57;4.07;68.05
64833;HTU21D;51290;45.060;38.948;2024-02-16T03:58:24;4.07;68.02
64833;HTU21D;51290;45.060;38.948;2024-02-16T04:00:50;4.06;67.98
64833;HTU21D;51290;45.060;38.948;2024-02-16T04:03:18;4.05;68.08
64833;HTU21D;51290;45.060;38.948;2024-02-16T04:05:45;4.06;68.13
64833;HTU21D;51290;45.060;38.948;2024-02-16T04:08:11;4.05;68.07
64833;HTU21D;51290;45.060;38.948;2024-02-16T04:10:36;4.03;68.06
64833;HTU21D;51290;45.060;38.948;2024-02-16T04:13:03;4.03;68.04
64833;HTU21D;51290;45.060;38.948;2024-02-16T04:15:30;4.01;68.01
64833;HTU21D;51290;45.060;38.948;2024-02-16T04:17:56;4.01;67.97
64833;HTU21D;51290;45.060;38.948;2024-02-16T04:20:22;4.01;67.91
64833;HTU21D;51290;45.060;38.948;2024-02-16T04:22:48;4.01;67.97
64833;HTU21D;51290;45.060;38.948;2024-02-16T04:25:14;4.02;68.01
64833;HTU21D;51290;45.060;38.948;2024-02-16T04:27:40;4.02;68.10
64833;HTU21D;51290;45.060;38.948;2024-02-16T04:30:06;4.05;68.05
64833;HTU21D;51290;45.060;38.948;2024-02-16T04:32:32;4.06;68.07
64833;HTU21D;51290;45.060;38.948;2024-02-16T04:34:58;4.06;68.10
64833;HTU21D;51290;45.060;38.948;2024-02-16T04:37:25;4.07;68.04
64833;HTU21D;51290;45.060;38.948;2024-02-16T04:39:51;4.08;67.83
64833;HTU21D;51290;45.060;38.948;2024-02-16T04:42:17;4.08;67.89
64833;HTU21D;51290;45.060;38.948;2024-02-16T04:44:44;4.08;67.82
64833;HTU21D;51290;45.060;38.948;2024-02-16T04:47:10;4.08;67.84
64833;HTU21D;51290;45.060;38.948;2024-02-16T04:49:37;4.06;67.87
64833;HTU21D;51290;45.060;38.948;2024-02-16T04:52:04;4.04;67.66
64833;HTU21D;51290;45.060;38.948;2024-02-16T04:54:30;3.99;67.63
64833;HTU21D;51290;45.060;38.948;2024-02-16T04:56:56;3.97;67.78
64833;HTU21D;51290;45.060;38.948;2024-02-16T04:59:21;3.93;67.74
64833;HTU21D;51290;45.060;38.948;2024-02-16T05:01:47;3.91;67.85
64833;HTU21D;51290;45.060;38.948;2024-02-16T05:04:13;3.90;67.91
64833;HTU21D;51290;45.060;38.948;2024-02-16T05:06:43;3.89;67.85
64833;HTU21D;51290;45.060;38.948;2024-02-16T05:09:12;3.87;67.89
64833;HTU21D;51290;45.060;38.948;2024-02-16T05:11:43;3.86;67.94
64833;HTU21D;51290;45.060;38.948;2024-02-16T05:14:10;3.85;68.07
64833;HTU21D;51290;45.060;38.948;2024-02-16T05:16:41;3.87;68.07
64833;HTU21D;51290;45.060;38.948;2024-02-16T05:19:07;3.87;68.07
64833;HTU21D;51290;45.060;38.948;2024-02-16T05:21:33;3.89;68.11
64833;HTU21D;51290;45.060;38.948;2024-02-16T05:24:01;3.89;68.07
64833;HTU21D;51290;45.060;38.948;2024-02-16T05:26:27;3.91;68.13
64833;HTU21D;51290;45.060;38.948;2024-02-16T05:28:53;3.91;68.13
64833;HTU21D;51290;45.060;38.948;2024-02-16T05:31:19;3.94;68.09
64833;HTU21D;51290;45.060;38.948;2024-02-16T05:33:48;3.91;67.97
64833;HTU21D;51290;45.060;38.948;2024-02-16T05:36:20;3.89;68.03
64833;HTU21D;51290;45.060;38.948;2024-02-16T05:38:47;3.86;68.10
64833;HTU21D;51290;45.060;38.948;2024-02-16T05:41:13;3.83;68.16
64833;HTU21D;51290;45.060;38.948;2024-02-16T05:43:42;3.79;68.24
64833;HTU21D;51290;45.060;38.948;2024-02-16T05:46:13;3.79;68.37
64833;HTU21D;51290;45.060;38.948;2024-02-16T05:48:38;3.77;68.44
64833;HTU21D;51290;45.060;38.948;2024-02-16T05:51:06;3.77;68.51
64833;HTU21D;51290;45.060;38.948;2024-02-16T05:53:35;3.79;68.56
64833;HTU21D;51290;45.060;38.948;2024-02-16T05:56:01;3.78;68.52
64833;HTU21D;51290;45.060;38.948;2024-02-16T05:58:27;3.80;68.62
64833;HTU21D;51290;45.060;38.948;2024-02-16T06:00:54;3.82;68.57
64833;HTU21D;51290;45.060;38.948;2024-02-16T06:03:20;3.84;68.62
64833;HTU21D;51290;45.060;38.948;2024-02-16T06:05:47;3.85;68.59
64833;HTU21D;51290;45.060;38.948;2024-02-16T06:08:14;3.88;68.60
64833;HTU21D;51290;45.060;38.948;2024-02-16T06:10:41;3.89;68.47
64833;HTU21D;51290;45.060;38.948;2024-02-16T06:13:18;3.90;68.42
64833;HTU21D;51290;45.060;38.948;2024-02-16T06:15:45;3.91;68.40
64833;HTU21D;51290;45.060;38.948;2024-02-16T06:18:11;3.90;68.39
64833;HTU21D;51290;45.060;38.948;2024-02-16T06:20:37;3.91;68.45
64833;HTU21D;51290;45.060;38.948;2024-02-16T06:23:03;3.93;68.42
64833;HTU21D;51290;45.060;38.948;2024-02-16T06:25:29;3.94;68.43
64833;HTU21D;51290;45.060;38.948;2024-02-16T06:27:55;3.95;68.27
64833;HTU21D;51290;45.060;38.948;2024-02-16T06:30:24;3.95;68.18
64833;HTU21D;51290;45.060;38.948;2024-02-16T06:32:50;3.93;68.20
64833;HTU21D;51290;45.060;38.948;2024-02-16T06:35:16;3.93;68.31
64833;HTU21D;51290;45.060;38.948;2024-02-16T06:37:42;3.95;68.31
64833;HTU21D;51290;45.060;38.948;2024-02-16T06:40:08;4.00;68.36
64833;HTU21D;51290;45.060;38.948;2024-02-16T06:42:38;4.02;68.18
64833;HTU21D;51290;45.060;38.948;2024-02-16T06:45:04;4.03;67.98
64833;HTU21D;51290;45.060;38.948;2024-02-16T06:47:34;4.01;67.78
64833;HTU21D;51290;45.060;38.948;2024-02-16T06:50:00;3.98;67.82
64833;HTU21D;51290;45.060;38.948;2024-02-16T06:52:26;3.97;67.94
64833;HTU21D;51290;45.060;38.948;2024-02-16T06:54:51;3.92;67.96
64833;HTU21D;51290;45.060;38.948;2024-02-16T06:57:18;3.93;68.06
64833;HTU21D;51290;45.060;38.948;2024-02-16T06:59:46;3.94;68.15
64833;HTU21D;51290;45.060;38.948;2024-02-16T07:02:12;3.98;68.22
64833;HTU21D;51290;45.060;38.948;2024-02-16T07:04:40;4.00;67.86
64833;HTU21D;51290;45.060;38.948;2024-02-16T07:07:06;3.99;67.84
64833;HTU21D;51290;45.060;38.948;2024-02-16T07:09:33;4.00;67.98
64833;HTU21D;51290;45.060;38.948;2024-02-16T07:11:59;4.06;68.01
64833;HTU21D;51290;45.060;38.948;2024-02-16T07:14:26;4.06;67.75
64833;HTU21D;51290;45.060;38.948;2024-02-16T07:16:52;4.09;67.76
64833;HTU21D;51290;45.060;38.948;2024-02-16T07:19:18;4.10;67.70
64833;HTU21D;51290;45.060;38.948;2024-02-16T07:21:44;4.09;67.59
64833;HTU21D;51290;45.060;38.948;2024-02-16T07:24:10;4.12;67.75
64833;HTU21D;51290;45.060;38.948;2024-02-16T07:26:36;4.12;67.75
64833;HTU21D;51290;45.060;38.948;2024-02-16T07:29:02;4.13;67.67
64833;HTU21D;51290;45.060;38.948;2024-02-16T07:31:34;4.10;67.33
64833;HTU21D;51290;45.060;38.948;2024-02-16T07:34:01;4.10;67.46
64833;HTU21D;51290;45.060;38.948;2024-02-16T07:36:27;4.13;67.59
64833;HTU21D;51290;45.060;38.948;2024-02-16T07:38:54;4.13;67.35
64833;HTU21D;51290;45.060;38.948;2024-02-16T07:41:21;4.15;67.53
64833;HTU21D;51290;45.060;38.948;2024-02-16T07:43:48;4.18;67.46
64833;HTU21D;51290;45.060;38.948;2024-02-16T07:46:14;4.18;67.27
64833;HTU21D;51290;45.060;38.948;2024-02-16T07:48:40;4.20;67.35
64833;HTU21D;51290;45.060;38.948;2024-02-16T07:51:06;4.22;67.52
64833;HTU21D;51290;45.060;38.948;2024-02-16T07:53:33;4.29;67.59
64833;HTU21D;51290;45.060;38.948;2024-02-16T07:56:00;4.39;67.62
64833;HTU21D;51290;45.060;38.948;2024-02-16T07:58:26;4.49;67.29
64833;HTU21D;51290;45.060;38.948;2024-02-16T08:00:53;4.52;66.81
64833;HTU21D;51290;45.060;38.948;2024-02-16T08:03:21;4.52;66.46
64833;HTU21D;51290;45.060;38.948;2024-02-16T08:05:48;4.50;66.36
64833;HTU21D;51290;45.060;38.948;2024-02-16T08:08:14;4.50;66.60
64833;HTU21D;51290;45.060;38.948;2024-02-16T08:10:40;4.50;66.53
64833;HTU21D;51290;45.060;38.948;2024-02-16T08:13:06;4.53;66.59
64833;HTU21D;51290;45.060;38.948;2024-02-16T08:15:32;4.57;66.76
64833;HTU21D;51290;45.060;38.948;2024-02-16T08:17:58;4.62;66.73
64833;HTU21D;51290;45.060;38.948;2024-02-16T08:20:24;4.66;66.59
64833;HTU21D;51290;45.060;38.948;2024-02-16T08:22:50;4.71;66.34
64833;HTU21D;51290;45.060;38.948;2024-02-16T08:25:16;4.72;66.06
64833;HTU21D;51290;45.060;38.948;2024-02-16T08:27:42;4.69;66.19
64833;HTU21D;51290;45.060;38.948;2024-02-16T08:30:08;4.74;66.40
64833;HTU21D;51290;45.060;38.948;2024-02-16T08:32:35;4.81;66.35
64833;HTU21D;51290;45.060;38.948;2024-02-16T08:35:00;4.87;66.52
64833;HTU21D;51290;45.060;38.948;2024-02-16T08:37:26;4.93;66.33
64833;HTU21D;51290;45.060;38.948;2024-02-16T08:39:52;5.00;66.18
64833;HTU21D;51290;45.060;38.948;2024-02-16T08:42:20;5.09;66.08
64833;HTU21D;51290;45.060;38.948;2024-02-16T08:44:47;5.17;66.11
64833;HTU21D;51290;45.060;38.948;2024-02-16T08:47:14;5.26;65.88
64833;HTU21D;51290;45.060;38.948;2024-02-16T08:49:41;5.37;65.76
64833;HTU21D;51290;45.060;38.948;2024-02-16T08:52:08;5.48;65.78
64833;HTU21D;51290;45.060;38.948;2024-02-16T08:54:34;5.61;65.70
64833;HTU21D;51290;45.060;38.948;2024-02-16T08:57:00;5.70;65.45
64833;HTU21D;51290;45.060;38.948;2024-02-16T08:59:26;5.77;65.15
64833;HTU21D;51290;45.060;38.948;2024-02-16T09:01:53;5.82;64.60
64833;HTU21D;51290;45.060;38.948;2024-02-16T09:04:19;5.80;64.30
64833;HTU21D;51290;45.060;38.948;2024-02-16T09:06:45;5.84;65.01
64833;HTU21D;51290;45.060;38.948;2024-02-16T09:09:11;5.95;64.75
64833;HTU21D;51290;45.060;38.948;2024-02-16T09:11:37;6.07;64.77
64833;HTU21D;51290;45.060;38.948;2024-02-16T09:14:03;6.21;64.46
64833;HTU21D;51290;45.060;38.948;2024-02-16T09:16:29;6.25;63.82
64833;HTU21D;51290;45.060;38.948;2024-02-16T09:18:58;6.23;63.84
64833;HTU21D;51290;45.060;38.948;2024-02-16T09:21:24;6.13;62.97
64833;HTU21D;51290;45.060;38.948;2024-02-16T09:23:53;5.99;63.58
64833;HTU21D;51290;45.060;38.948;2024-02-16T09:26:18;5.91;63.84
64833;HTU21D;51290;45.060;38.948;2024-02-16T09:28:45;5.84;63.87
64833;HTU21D;51290;45.060;38.948;2024-02-16T09:31:14;5.78;63.69
64833;HTU21D;51290;45.060;38.948;2024-02-16T09:33:41;5.76;63.69
64833;HTU21D;51290;45.060;38.948;2024-02-16T09:36:07;5.69;63.63
64833;HTU21D;51290;45.060;38.948;2024-02-16T09:38:33;5.63;63.56
64833;HTU21D;51290;45.060;38.948;2024-02-16T09:40:59;5.60;63.97
64833;HTU21D;51290;45.060;38.948;2024-02-16T09:43:28;5.60;64.12
64833;HTU21D;51290;45.060;38.948;2024-02-16T09:45:58;5.60;64.01
64833;HTU21D;51290;45.060;38.948;2024-02-16T09:48:27;5.61;64.05
64833;HTU21D;51290;45.060;38.948;2024-02-16T09:50:57;5.61;63.85
64833;HTU21D;51290;45.060;38.948;2024-02-16T09:53:27;5.64;64.00
64833;HTU21D;51290;45.060;38.948;2024-02-16T09:55:54;5.65;63.99
64833;HTU21D;51290;45.060;38.948;2024-02-16T09:58:20;5.68;63.81
64833;HTU21D;51290;45.060;38.948;2024-02-16T10:00:54;5.69;63.82
64833;HTU21D;51290;45.060;38.948;2024-02-16T10:03:28;5.72;63.98
64833;HTU21D;51290;45.060;38.948;2024-02-16T10:06:08;5.79;63.72
64833;HTU21D;51290;45.060;38.948;2024-02-16T10:08:46;5.81;63.21
64833;HTU21D;51290;45.060;38.948;2024-02-16T10:11:15;5.75;63.20
64833;HTU21D;51290;45.060;38.948;2024-02-16T10:13:41;5.72;63.58
64833;HTU21D;51290;45.060;38.948;2024-02-16T10:16:08;5.74;63.71
64833;HTU21D;51290;45.060;38.948;2024-02-16T10:18:36;5.70;62.84
64833;HTU21D;51290;45.060;38.948;2024-02-16T10:21:03;5.63;63.05
64833;HTU21D;51290;45.060;38.948;2024-02-16T10:23:29;5.55;63.22
64833;HTU21D;51290;45.060;38.948;2024-02-16T10:25:56;5.54;63.37
64833;HTU21D;51290;45.060;38.948;2024-02-16T10:28:24;5.53;63.52
64833;HTU21D;51290;45.060;38.948;2024-02-16T10:31:00;5.56;63.48
64833;HTU21D;51290;45.060;38.948;2024-02-16T10:33:32;5.55;63.36
64833;HTU21D;51290;45.060;38.948;2024-02-16T10:35:58;5.55;63.44
64833;HTU21D;51290;45.060;38.948;2024-02-16T10:38:25;5.57;63.40
64833;HTU21D;51290;45.060;38.948;2024-02-16T10:40:54;5.57;63.33
64833;HTU21D;51290;45.060;38.948;2024-02-16T10:43:22;5.57;63.25
64833;HTU21D;51290;45.060;38.948;2024-02-16T10:45:51;5.59;63.44
64833;HTU21D;51290;45.060;38.948;2024-02-16T10:48:18;5.62;63.34
64833;HTU21D;51290;45.060;38.948;2024-02-16T10:50:44;5.68;63.60
64833;HTU21D;51290;45.060;38.948;2024-02-16T10:53:31;5.71;63.10
64833;HTU21D;51290;45.060;38.948;2024-02-16T10:55:59;5.74;63.14
64833;HTU21D;51290;45.060;38.948;2024-02-16T10:58:27;5.82;63.46
64833;HTU21D;51290;45.060;38.948;2024-02-16T11:00:55;5.95;63.41
64833;HTU21D;51290;45.060;38.948;2024-02-16T11:03:25;6.07;62.92
64833;HTU21D;51290;45.060;38.948;2024-02-16T11:05:52;6.09;62.31
64833;HTU21D;51290;45.060;38.948;2024-02-16T11:08:20;6.05;62.53
64833;HTU21D;51290;45.060;38.948;2024-02-16T11:10:56;6.01;62.24
64833;HTU21D;51290;45.060;38.948;2024-02-16T11:13:23;5.98;62.13
64833;HTU21D;51290;45.060;38.948;2024-02-16T11:16:03;5.93;62.21
64833;HTU21D;51290;45.060;38.948;2024-02-16T11:18:30;5.91;62.66
64833;HTU21D;51290;45.060;38.948;2024-02-16T11:21:02;5.97;62.69
64833;HTU21D;51290;45.060;38.948;2024-02-16T11:23:30;5.96;62.26
64833;HTU21D;51290;45.060;38.948;2024-02-16T11:26:08;5.91;62.33
64833;HTU21D;51290;45.060;38.948;2024-02-16T11:28:37;5.86;62.60
64833;HTU21D;51290;45.060;38.948;2024-02-16T11:31:04;5.87;62.56
64833;HTU21D;51290;45.060;38.948;2024-02-16T11:33:30;5.91;62.70
64833;HTU21D;51290;45.060;38.948;2024-02-16T11:35:58;5.99;62.84
64833;HTU21D;51290;45.060;38.948;2024-02-16T11:38:25;6.08;62.40
64833;HTU21D;51290;45.060;38.948;2024-02-16T11:41:05;6.13;62.32
64833;HTU21D;51290;45.060;38.948;2024-02-16T11:43:32;6.13;61.69
64833;HTU21D;51290;45.060;38.948;2024-02-16T11:46:21;6.09;61.65
64833;HTU21D;51290;45.060;38.948;2024-02-16T11:48:47;6.04;61.67
64833;HTU21D;51290;45.060;38.948;2024-02-16T11:51:15;5.98;61.66
64833;HTU21D;51290;45.060;38.948;2024-02-16T11:53:42;5.95;61.72
64833;HTU21D;51290;45.060;38.948;2024-02-16T11:56:10;6.01;62.25
64833;HTU21D;51290;45.060;38.948;2024-02-16T11:58:36;6.14;62.17
64833;HTU21D;51290;45.060;38.948;2024-02-16T12:01:02;6.24;62.05
64833;HTU21D;51290;45.060;38.948;2024-02-16T12:03:28;6.34;61.63
64833;HTU21D;51290;45.060;38.948;2024-02-16T12:05:56;6.39;61.65
64833;HTU21D;51290;45.060;38.948;2024-02-16T12:08:23;6.42;61.34
64833;HTU21D;51290;45.060;38.948;2024-02-16T12:10:51;6.43;61.13
64833;HTU21D;51290;45.060;38.948;2024-02-16T12:13:17;6.38;60.89
64833;HTU21D;51290;45.060;38.948;2024-02-16T12:15:52;6.30;61.02
64833;HTU21D;51290;45.060;38.948;2024-02-16T12:18:25;6.24;61.08
64833;HTU21D;51290;45.060;38.948;2024-02-16T12:21:01;6.19;61.04
64833;HTU21D;51290;45.060;38.948;2024-02-16T12:23:29;6.16;61.27
64833;HTU21D;51290;45.060;38.948;2024-02-16T12:25:59;6.14;61.28
64833;HTU21D;51290;45.060;38.948;2024-02-16T12:28:26;6.13;61.37
64833;HTU21D;51290;45.060;38.948;2024-02-16T12:30:58;6.13;61.47
64833;HTU21D;51290;45.060;38.948;2024-02-16T12:33:25;6.10;61.22
64833;HTU21D;51290;45.060;38.948;2024-02-16T12:35:51;6.06;61.44
64833;HTU21D;51290;45.060;38.948;2024-02-16T12:38:17;6.08;61.62
64833;HTU21D;51290;45.060;38.948;2024-02-16T12:40:48;6.11;61.42
64833;HTU21D;51290;45.060;38.948;2024-02-16T12:43:15;6.11;61.12
64833;HTU21D;51290;45.060;38.948;2024-02-16T12:45:41;6.09;61.36
64833;HTU21D;51290;45.060;38.948;2024-02-16T12:48:07;6.06;61.34
64833;HTU21D;51290;45.060;38.948;2024-02-16T12:50:36;5.98;61.40
64833;HTU21D;51290;45.060;38.948;2024-02-16T12:53:04;5.95;61.15
64833;HTU21D;51290;45.060;38.948;2024-02-16T12:55:31;5.86;61.22
64833;HTU21D;51290;45.060;38.948;2024-02-16T12:57:57;5.82;61.39
64833;HTU21D;51290;45.060;38.948;2024-02-16T13:00:23;5.79;61.57
64833;HTU21D;51290;45.060;38.948;2024-02-16T13:02:49;5.78;61.75
64833;HTU21D;51290;45.060;38.948;2024-02-16T13:05:15;5.81;61.70
64833;HTU21D;51290;45.060;38.948;2024-02-16T13:07:41;5.82;61.66
64833;HTU21D;51290;45.060;38.948;2024-02-16T13:10:08;5.83;61.67
64833;HTU21D;51290;45.060;38.948;2024-02-16T13:12:35;5.83;61.24
64833;HTU21D;51290;45.060;38.948;2024-02-16T13:15:03;5.81;61.42
64833;HTU21D;51290;45.060;38.948;2024-02-16T13:17:30;5.79;61.64
64833;HTU21D;51290;45.060;38.948;2024-02-16T13:19:56;5.77;61.71
64833;HTU21D;51290;45.060;38.948;2024-02-16T13:22:33;5.74;61.34
64833;HTU21D;51290;45.060;38.948;2024-02-16T13:25:00;5.68;61.37
64833;HTU21D;51290;45.060;38.948;2024-02-16T13:27:26;5.68;61.66
64833;HTU21D;51290;45.060;38.948;2024-02-16T13:29:52;5.65;61.15
64833;HTU21D;51290;45.060;38.948;2024-02-16T13:32:19;5.55;61.33
64833;HTU21D;51290;45.060;38.948;2024-02-16T13:34:45;5.46;61.34
64833;HTU21D;51290;45.060;38.948;2024-02-16T13:37:11;5.37;61.46
64833;HTU21D;51290;45.060;38.948;2024-02-16T13:39:37;5.27;61.45
64833;HTU21D;51290;45.060;38.948;2024-02-16T13:42:03;5.16;61.60
64833;HTU21D;51290;45.060;38.948;2024-02-16T13:44:29;5.10;61.91
64833;HTU21D;51290;45.060;38.948;2024-02-16T13:46:55;5.07;62.13
64833;HTU21D;51290;45.060;38.948;2024-02-16T13:49:21;5.06;62.31
64833;HTU21D;51290;45.060;38.948;2024-02-16T13:51:47;5.06;62.19
64833;HTU21D;51290;45.060;38.948;2024-02-16T13:54:13;5.01;62.16
64833;HTU21D;51290;45.060;38.948;2024-02-16T13:56:39;4.98;62.34
64833;HTU21D;51290;45.060;38.948;2024-02-16T13:59:05;4.96;62.28
64833;HTU21D;51290;45.060;38.948;2024-02-16T14:01:34;4.94;62.47
64833;HTU21D;51290;45.060;38.948;2024-02-16T14:04:01;4.92;62.40
64833;HTU21D;51290;45.060;38.948;2024-02-16T14:06:28;4.89;62.39
64833;HTU21D;51290;45.060;38.948;2024-02-16T14:08:56;4.81;62.39
64833;HTU21D;51290;45.060;38.948;2024-02-16T14:11:23;4.74;62.52
64833;HTU21D;51290;45.060;38.948;2024-02-16T14:13:49;4.69;62.66
64833;HTU21D;51290;45.060;38.948;2024-02-16T14:16:15;4.65;62.83
64833;HTU21D;51290;45.060;38.948;2024-02-16T14:18:41;4.63;62.89
64833;HTU21D;51290;45.060;38.948;2024-02-16T14:21:07;4.62;63.05
64833;HTU21D;51290;45.060;38.948;2024-02-16T14:23:33;4.60;62.92
64833;HTU21D;51290;45.060;38.948;2024-02-16T14:26:00;4.57;62.96
64833;HTU21D;51290;45.060;38.948;2024-02-16T14:28:26;4.56;63.08
64833;HTU21D;51290;45.060;38.948;2024-02-16T14:33:27;4.47;63.00
64833;HTU21D;51290;45.060;38.948;2024-02-16T14:35:53;4.41;63.02
64833;HTU21D;51290;45.060;38.948;2024-02-16T14:38:19;4.34;63.00
64833;HTU21D;51290;45.060;38.948;2024-02-16T14:40:45;4.28;63.06
64833;HTU21D;51290;45.060;38.948;2024-02-16T14:43:11;4.18;63.10
64833;HTU21D;51290;45.060;38.948;2024-02-16T14:45:37;4.13;63.24
64833;HTU21D;51290;45.060;38.948;2024-02-16T14:48:04;4.04;63.34
64833;HTU21D;51290;45.060;38.948;2024-02-16T14:50:31;3.97;63.36
64833;HTU21D;51290;45.060;38.948;2024-02-16T14:52:57;3.92;63.46
64833;HTU21D;51290;45.060;38.948;2024-02-16T14:55:23;3.91;63.60
64833;HTU21D;51290;45.060;38.948;2024-02-16T14:57:49;3.88;63.60
64833;HTU21D;51290;45.060;38.948;2024-02-16T15:00:15;3.85;63.69
64833;HTU21D;51290;45.060;38.948;2024-02-16T15:02:41;3.80;63.82
64833;HTU21D;51290;45.060;38.948;2024-02-16T15:05:08;3.78;63.79
64833;HTU21D;51290;45.060;38.948;2024-02-16T15:07:35;3.72;63.92
64833;HTU21D;51290;45.060;38.948;2024-02-16T15:10:01;3.65;63.87
64833;HTU21D;51290;45.060;38.948;2024-02-16T15:12:28;3.63;63.98
64833;HTU21D;51290;45.060;38.948;2024-02-16T15:14:54;3.60;63.97
64833;HTU21D;51290;45.060;38.948;2024-02-16T15:17:21;3.56;64.09